sensor_id;sensor_type;location;lat;lon;timestamp;P1;durP1;ratioP1;P2;durP2;ratioP2
19973;SDS011;10148;47.694;9.442;2022-10-30T00:01:23;10.48;;;6.25;;
19973;SDS011;10148;47.694;9.442;2022-10-30T00:03:49;10.93;;;5.90;;
19973;SDS011;10148;47.694;9.442;2022-10-30T00:06:14;12.60;;;6.80;;
19973;SDS011;10148;47.694;9.442;2022-10-30T00:08:40;15.15;;;8.95;;
19973;SDS011;10148;47.694;9.442;2022-10-30T00:11:06;11.48;;;8.77;;
19973;SDS011;10148;47.694;9.442;2022-10-30T00:13:33;14.93;;;8.63;;
19973;SDS011;10148;47.694;9.442;2022-10-30T00:16:01;14.90;;;9.90;;
19973;SDS011;10148;47.694;9.442;2022-10-30T00:18:31;13.55;;;9.32;;
19973;SDS011;10148;47.694;9.442;2022-10-30T00:21:03;14.00;;;9.30;;
19973;SDS011;10148;47.694;9.442;2022-10-30T00:23:29;12.98;;;9.27;;
19973;SDS011;10148;47.694;9.442;2022-10-30T00:25:55;13.65;;;8.75;;
19973;SDS011;10148;47.694;9.442;2022-10-30T00:28:20;13.27;;;8.75;;
19973;SDS011;10148;47.694;9.442;2022-10-30T00:30:46;15.98;;;9.18;;
19973;SDS011;10148;47.694;9.442;2022-10-30T00:33:11;12.52;;;8.05;;
19973;SDS011;10148;47.694;9.442;2022-10-30T00:35:37;14.98;;;9.77;;
19973;SDS011;10148;47.694;9.442;2022-10-30T00:38:02;12.60;;;9.27;;
19973;SDS011;10148;47.694;9.442;2022-10-30T00:40:28;13.93;;;8.35;;
19973;SDS011;10148;47.694;9.442;2022-10-30T00:42:53;13.82;;;8.43;;
19973;SDS011;10148;47.694;9.442;2022-10-30T00:45:19;13.40;;;7.63;;
19973;SDS011;10148;47.694;9.442;2022-10-30T00:47:55;14.57;;;8.55;;
19973;SDS011;10148;47.694;9.442;2022-10-30T00:50:26;12.88;;;8.90;;
19973;SDS011;10148;47.694;9.442;2022-10-30T00:53:01;11.50;;;9.20;;
19973;SDS011;10148;47.694;9.442;2022-10-30T00:55:43;17.65;;;10.95;;
19973;SDS011;10148;47.694;9.442;2022-10-30T00:58:14;16.40;;;10.07;;
19973;SDS011;10148;47.694;9.442;2022-10-30T01:00:42;17.17;;;9.80;;
19973;SDS011;10148;47.694;9.442;2022-10-30T01:03:11;14.00;;;10.25;;
19973;SDS011;10148;47.694;9.442;2022-10-30T01:05:38;17.38;;;11.18;;
19973;SDS011;10148;47.694;9.442;2022-10-30T01:08:04;15.65;;;10.68;;
19973;SDS011;10148;47.694;9.442;2022-10-30T01:10:30;16.13;;;10.27;;
19973;SDS011;10148;47.694;9.442;2022-10-30T01:12:55;17.95;;;11.45;;
19973;SDS011;10148;47.694;9.442;2022-10-30T01:15:25;20.80;;;11.38;;
19973;SDS011;10148;47.694;9.442;2022-10-30T01:20:55;14.35;;;9.85;;
19973;SDS011;10148;47.694;9.442;2022-10-30T01:23:52;12.40;;;9.23;;
19973;SDS011;10148;47.694;9.442;2022-10-30T01:37:34;13.57;;;8.98;;
19973;SDS011;10148;47.694;9.442;2022-10-30T01:40:05;16.77;;;10.20;;
19973;SDS011;10148;47.694;9.442;2022-10-30T01:51:05;15.82;;;8.40;;
19973;SDS011;10148;47.694;9.442;2022-10-30T01:56:35;14.98;;;8.20;;
19973;SDS011;10148;47.694;9.442;2022-10-30T02:01:40;12.98;;;8.07;;
19973;SDS011;10148;47.694;9.442;2022-10-30T02:04:07;13.85;;;8.27;;
19973;SDS011;10148;47.694;9.442;2022-10-30T02:06:35;16.48;;;8.35;;
19973;SDS011;10148;47.694;9.442;2022-10-30T02:09:01;12.98;;;7.90;;
19973;SDS011;10148;47.694;9.442;2022-10-30T02:11:27;14.98;;;8.27;;
19973;SDS011;10148;47.694;9.442;2022-10-30T02:13:55;10.88;;;6.97;;
19973;SDS011;10148;47.694;9.442;2022-10-30T02:16:22;12.85;;;6.93;;
19973;SDS011;10148;47.694;9.442;2022-10-30T02:18:48;10.75;;;7.38;;
19973;SDS011;10148;47.694;9.442;2022-10-30T02:21:14;12.15;;;6.97;;
19973;SDS011;10148;47.694;9.442;2022-10-30T02:23:39;9.63;;;7.50;;
19973;SDS011;10148;47.694;9.442;2022-10-30T02:26:05;19.05;;;7.20;;
19973;SDS011;10148;47.694;9.442;2022-10-30T02:28:30;12.52;;;7.65;;
19973;SDS011;10148;47.694;9.442;2022-10-30T02:30:56;12.52;;;7.90;;
19973;SDS011;10148;47.694;9.442;2022-10-30T02:33:22;12.15;;;8.30;;
19973;SDS011;10148;47.694;9.442;2022-10-30T02:35:48;13.40;;;8.63;;
19973;SDS011;10148;47.694;9.442;2022-10-30T02:38:15;15.82;;;8.90;;
19973;SDS011;10148;47.694;9.442;2022-10-30T02:40:40;10.63;;;8.02;;
19973;SDS011;10148;47.694;9.442;2022-10-30T02:43:06;9.95;;;7.40;;
19973;SDS011;10148;47.694;9.442;2022-10-30T02:45:31;10.18;;;7.45;;
19973;SDS011;10148;47.694;9.442;2022-10-30T02:48:00;11.63;;;7.80;;
19973;SDS011;10148;47.694;9.442;2022-10-30T02:50:26;9.55;;;8.15;;
19973;SDS011;10148;47.694;9.442;2022-10-30T02:52:51;10.00;;;7.75;;
19973;SDS011;10148;47.694;9.442;2022-10-30T02:55:17;12.32;;;7.78;;
19973;SDS011;10148;47.694;9.442;2022-10-30T02:57:42;12.10;;;7.82;;
19973;SDS011;10148;47.694;9.442;2022-10-30T03:00:08;11.70;;;7.93;;
19973;SDS011;10148;47.694;9.442;2022-10-30T03:02:35;13.20;;;8.25;;
19973;SDS011;10148;47.694;9.442;2022-10-30T03:05:00;13.98;;;8.40;;
19973;SDS011;10148;47.694;9.442;2022-10-30T03:07:26;11.25;;;8.60;;
19973;SDS011;10148;47.694;9.442;2022-10-30T03:09:52;13.98;;;9.50;;
19973;SDS011;10148;47.694;9.442;2022-10-30T03:12:18;15.40;;;9.40;;
19973;SDS011;10148;47.694;9.442;2022-10-30T03:14:44;13.65;;;9.50;;
19973;SDS011;10148;47.694;9.442;2022-10-30T03:17:09;13.57;;;9.45;;
19973;SDS011;10148;47.694;9.442;2022-10-30T03:19:35;13.30;;;9.65;;
19973;SDS011;10148;47.694;9.442;2022-10-30T03:22:00;14.13;;;9.40;;
19973;SDS011;10148;47.694;9.442;2022-10-30T03:24:26;15.60;;;9.55;;
19973;SDS011;10148;47.694;9.442;2022-10-30T03:26:51;15.05;;;10.02;;
19973;SDS011;10148;47.694;9.442;2022-10-30T03:29:17;13.40;;;9.13;;
19973;SDS011;10148;47.694;9.442;2022-10-30T03:31:43;13.98;;;9.85;;
19973;SDS011;10148;47.694;9.442;2022-10-30T03:34:08;16.67;;;10.43;;
19973;SDS011;10148;47.694;9.442;2022-10-30T03:36:34;16.45;;;9.75;;
19973;SDS011;10148;47.694;9.442;2022-10-30T03:38:59;13.63;;;9.30;;
19973;SDS011;10148;47.694;9.442;2022-10-30T03:41:25;13.77;;;9.63;;
19973;SDS011;10148;47.694;9.442;2022-10-30T03:43:50;13.65;;;10.18;;
19973;SDS011;10148;47.694;9.442;2022-10-30T03:46:16;15.60;;;9.00;;
19973;SDS011;10148;47.694;9.442;2022-10-30T03:48:41;12.40;;;8.70;;
19973;SDS011;10148;47.694;9.442;2022-10-30T03:51:07;13.02;;;9.02;;
19973;SDS011;10148;47.694;9.442;2022-10-30T03:53:32;13.48;;;10.40;;
19973;SDS011;10148;47.694;9.442;2022-10-30T03:56:02;17.27;;;11.55;;
19973;SDS011;10148;47.694;9.442;2022-10-30T03:58:28;15.57;;;9.05;;
19973;SDS011;10148;47.694;9.442;2022-10-30T04:00:59;13.85;;;9.27;;
19973;SDS011;10148;47.694;9.442;2022-10-30T04:03:28;14.05;;;9.25;;
19973;SDS011;10148;47.694;9.442;2022-10-30T04:05:54;16.73;;;11.85;;
19973;SDS011;10148;47.694;9.442;2022-10-30T04:08:20;18.40;;;12.05;;
19973;SDS011;10148;47.694;9.442;2022-10-30T04:10:45;18.05;;;11.77;;
19973;SDS011;10148;47.694;9.442;2022-10-30T04:13:12;12.85;;;10.60;;
19973;SDS011;10148;47.694;9.442;2022-10-30T04:15:39;15.63;;;10.40;;
19973;SDS011;10148;47.694;9.442;2022-10-30T04:18:05;17.73;;;12.60;;
19973;SDS011;10148;47.694;9.442;2022-10-30T04:20:31;16.33;;;10.57;;
19973;SDS011;10148;47.694;9.442;2022-10-30T04:22:57;13.00;;;8.98;;
19973;SDS011;10148;47.694;9.442;2022-10-30T04:25:24;14.40;;;8.57;;
19973;SDS011;10148;47.694;9.442;2022-10-30T04:27:50;11.57;;;8.00;;
19973;SDS011;10148;47.694;9.442;2022-10-30T04:30:17;12.80;;;8.77;;
19973;SDS011;10148;47.694;9.442;2022-10-30T04:32:48;12.55;;;8.88;;
19973;SDS011;10148;47.694;9.442;2022-10-30T04:35:18;11.98;;;7.78;;
19973;SDS011;10148;47.694;9.442;2022-10-30T04:37:52;11.13;;;7.68;;
19973;SDS011;10148;47.694;9.442;2022-10-30T04:40:19;13.75;;;7.95;;
19973;SDS011;10148;47.694;9.442;2022-10-30T04:42:46;10.45;;;7.75;;
19973;SDS011;10148;47.694;9.442;2022-10-30T04:45:12;10.50;;;7.30;;
19973;SDS011;10148;47.694;9.442;2022-10-30T04:47:37;13.43;;;7.15;;
19973;SDS011;10148;47.694;9.442;2022-10-30T04:50:03;11.48;;;7.75;;
19973;SDS011;10148;47.694;9.442;2022-10-30T04:52:29;11.45;;;7.32;;
19973;SDS011;10148;47.694;9.442;2022-10-30T04:54:54;10.77;;;7.72;;
19973;SDS011;10148;47.694;9.442;2022-10-30T04:57:20;10.63;;;6.60;;
19973;SDS011;10148;47.694;9.442;2022-10-30T04:59:45;11.10;;;7.75;;
19973;SDS011;10148;47.694;9.442;2022-10-30T05:02:11;8.80;;;6.18;;
19973;SDS011;10148;47.694;9.442;2022-10-30T05:04:36;10.40;;;7.20;;
19973;SDS011;10148;47.694;9.442;2022-10-30T05:07:02;8.45;;;6.95;;
19973;SDS011;10148;47.694;9.442;2022-10-30T05:09:27;9.00;;;7.25;;
19973;SDS011;10148;47.694;9.442;2022-10-30T05:11:53;9.48;;;6.47;;
19973;SDS011;10148;47.694;9.442;2022-10-30T05:14:19;8.52;;;7.47;;
19973;SDS011;10148;47.694;9.442;2022-10-30T05:16:44;8.32;;;6.90;;
19973;SDS011;10148;47.694;9.442;2022-10-30T05:19:10;8.30;;;7.38;;
19973;SDS011;10148;47.694;9.442;2022-10-30T05:21:36;9.80;;;8.43;;
19973;SDS011;10148;47.694;9.442;2022-10-30T05:24:01;13.50;;;8.70;;
19973;SDS011;10148;47.694;9.442;2022-10-30T05:26:27;9.20;;;8.05;;
19973;SDS011;10148;47.694;9.442;2022-10-30T05:28:52;10.80;;;8.50;;
19973;SDS011;10148;47.694;9.442;2022-10-30T05:31:18;11.70;;;8.15;;
19973;SDS011;10148;47.694;9.442;2022-10-30T05:33:43;12.98;;;9.38;;
19973;SDS011;10148;47.694;9.442;2022-10-30T05:36:09;13.00;;;9.80;;
19973;SDS011;10148;47.694;9.442;2022-10-30T05:38:36;11.88;;;9.02;;
19973;SDS011;10148;47.694;9.442;2022-10-30T05:41:01;11.50;;;8.50;;
19973;SDS011;10148;47.694;9.442;2022-10-30T05:43:27;9.63;;;8.38;;
19973;SDS011;10148;47.694;9.442;2022-10-30T05:45:52;15.45;;;9.88;;
19973;SDS011;10148;47.694;9.442;2022-10-30T05:48:18;15.57;;;11.20;;
19973;SDS011;10148;47.694;9.442;2022-10-30T05:50:43;15.40;;;10.75;;
19973;SDS011;10148;47.694;9.442;2022-10-30T05:53:09;12.82;;;9.50;;
19973;SDS011;10148;47.694;9.442;2022-10-30T05:55:34;15.13;;;10.50;;
19973;SDS011;10148;47.694;9.442;2022-10-30T05:58:03;12.07;;;9.05;;
19973;SDS011;10148;47.694;9.442;2022-10-30T06:00:32;14.77;;;9.30;;
19973;SDS011;10148;47.694;9.442;2022-10-30T06:03:00;16.95;;;9.68;;
19973;SDS011;10148;47.694;9.442;2022-10-30T06:05:28;14.32;;;9.60;;
19973;SDS011;10148;47.694;9.442;2022-10-30T06:07:55;15.35;;;10.82;;
19973;SDS011;10148;47.694;9.442;2022-10-30T06:10:22;14.25;;;10.13;;
19973;SDS011;10148;47.694;9.442;2022-10-30T06:12:51;17.92;;;13.60;;
19973;SDS011;10148;47.694;9.442;2022-10-30T06:15:21;12.38;;;9.55;;
19973;SDS011;10148;47.694;9.442;2022-10-30T06:17:48;13.77;;;9.55;;
19973;SDS011;10148;47.694;9.442;2022-10-30T06:20:14;35.40;;;31.92;;
19973;SDS011;10148;47.694;9.442;2022-10-30T06:22:41;30.88;;;27.63;;
19973;SDS011;10148;47.694;9.442;2022-10-30T06:25:06;15.25;;;13.75;;
19973;SDS011;10148;47.694;9.442;2022-10-30T06:27:35;13.07;;;10.82;;
19973;SDS011;10148;47.694;9.442;2022-10-30T06:30:01;12.45;;;9.85;;
19973;SDS011;10148;47.694;9.442;2022-10-30T06:32:27;16.27;;;14.07;;
19973;SDS011;10148;47.694;9.442;2022-10-30T06:34:52;18.67;;;14.52;;
19973;SDS011;10148;47.694;9.442;2022-10-30T06:37:18;13.85;;;11.18;;
19973;SDS011;10148;47.694;9.442;2022-10-30T06:39:43;11.32;;;9.00;;
19973;SDS011;10148;47.694;9.442;2022-10-30T06:42:09;13.82;;;10.57;;
19973;SDS011;10148;47.694;9.442;2022-10-30T06:44:34;10.13;;;8.93;;
19973;SDS011;10148;47.694;9.442;2022-10-30T06:47:00;13.23;;;9.18;;
19973;SDS011;10148;47.694;9.442;2022-10-30T06:49:25;13.27;;;9.73;;
19973;SDS011;10148;47.694;9.442;2022-10-30T06:51:51;10.60;;;9.10;;
19973;SDS011;10148;47.694;9.442;2022-10-30T06:54:16;14.80;;;10.55;;
19973;SDS011;10148;47.694;9.442;2022-10-30T06:56:42;15.00;;;11.57;;
19973;SDS011;10148;47.694;9.442;2022-10-30T06:59:08;14.98;;;10.30;;
19973;SDS011;10148;47.694;9.442;2022-10-30T07:01:34;10.68;;;7.72;;
19973;SDS011;10148;47.694;9.442;2022-10-30T07:04:00;10.23;;;8.52;;
19973;SDS011;10148;47.694;9.442;2022-10-30T07:06:26;12.13;;;8.80;;
19973;SDS011;10148;47.694;9.442;2022-10-30T07:08:51;10.98;;;8.35;;
19973;SDS011;10148;47.694;9.442;2022-10-30T07:11:17;9.88;;;7.82;;
19973;SDS011;10148;47.694;9.442;2022-10-30T07:13:44;11.60;;;8.75;;
19973;SDS011;10148;47.694;9.442;2022-10-30T07:16:09;10.50;;;8.57;;
19973;SDS011;10148;47.694;9.442;2022-10-30T07:18:35;10.68;;;8.73;;
19973;SDS011;10148;47.694;9.442;2022-10-30T07:21:00;10.80;;;8.32;;
19973;SDS011;10148;47.694;9.442;2022-10-30T07:23:26;12.25;;;9.05;;
19973;SDS011;10148;47.694;9.442;2022-10-30T07:25:51;10.75;;;8.88;;
19973;SDS011;10148;47.694;9.442;2022-10-30T07:28:17;10.55;;;8.52;;
19973;SDS011;10148;47.694;9.442;2022-10-30T07:30:42;11.35;;;8.07;;
19973;SDS011;10148;47.694;9.442;2022-10-30T07:33:08;39.85;;;28.52;;
19973;SDS011;10148;47.694;9.442;2022-10-30T07:35:35;17.52;;;10.60;;
19973;SDS011;10148;47.694;9.442;2022-10-30T07:38:02;9.75;;;8.52;;
19973;SDS011;10148;47.694;9.442;2022-10-30T07:40:29;11.43;;;8.60;;
19973;SDS011;10148;47.694;9.442;2022-10-30T07:42:58;11.65;;;8.25;;
19973;SDS011;10148;47.694;9.442;2022-10-30T07:45:25;14.00;;;8.05;;
19973;SDS011;10148;47.694;9.442;2022-10-30T07:47:51;9.85;;;8.02;;
19973;SDS011;10148;47.694;9.442;2022-10-30T07:50:17;13.23;;;9.35;;
19973;SDS011;10148;47.694;9.442;2022-10-30T07:52:42;14.73;;;9.98;;
19973;SDS011;10148;47.694;9.442;2022-10-30T07:55:08;11.32;;;8.40;;
19973;SDS011;10148;47.694;9.442;2022-10-30T07:57:37;11.52;;;8.18;;
19973;SDS011;10148;47.694;9.442;2022-10-30T08:00:05;11.40;;;8.02;;
19973;SDS011;10148;47.694;9.442;2022-10-30T08:02:35;10.57;;;8.02;;
19973;SDS011;10148;47.694;9.442;2022-10-30T08:05:01;10.32;;;9.00;;
19973;SDS011;10148;47.694;9.442;2022-10-30T08:07:29;11.77;;;9.35;;
19973;SDS011;10148;47.694;9.442;2022-10-30T08:09:55;11.10;;;8.75;;
19973;SDS011;10148;47.694;9.442;2022-10-30T08:12:21;12.30;;;8.65;;
19973;SDS011;10148;47.694;9.442;2022-10-30T08:14:46;9.73;;;8.50;;
19973;SDS011;10148;47.694;9.442;2022-10-30T08:17:13;11.05;;;8.45;;
19973;SDS011;10148;47.694;9.442;2022-10-30T08:19:38;10.20;;;9.05;;
19973;SDS011;10148;47.694;9.442;2022-10-30T08:22:04;12.10;;;9.10;;
19973;SDS011;10148;47.694;9.442;2022-10-30T08:24:30;7.63;;;6.88;;
19973;SDS011;10148;47.694;9.442;2022-10-30T08:26:55;10.77;;;8.50;;
19973;SDS011;10148;47.694;9.442;2022-10-30T08:29:21;9.85;;;7.70;;
19973;SDS011;10148;47.694;9.442;2022-10-30T08:31:47;12.35;;;8.32;;
19973;SDS011;10148;47.694;9.442;2022-10-30T08:34:13;11.35;;;8.40;;
19973;SDS011;10148;47.694;9.442;2022-10-30T08:36:39;10.48;;;8.18;;
19973;SDS011;10148;47.694;9.442;2022-10-30T08:39:04;11.98;;;8.68;;
19973;SDS011;10148;47.694;9.442;2022-10-30T08:41:30;10.05;;;8.85;;
19973;SDS011;10148;47.694;9.442;2022-10-30T08:43:55;11.75;;;9.07;;
19973;SDS011;10148;47.694;9.442;2022-10-30T08:46:21;11.73;;;8.85;;
19973;SDS011;10148;47.694;9.442;2022-10-30T08:48:46;10.70;;;8.82;;
19973;SDS011;10148;47.694;9.442;2022-10-30T08:51:12;14.63;;;9.15;;
19973;SDS011;10148;47.694;9.442;2022-10-30T08:53:38;12.82;;;8.65;;
19973;SDS011;10148;47.694;9.442;2022-10-30T08:56:03;12.68;;;7.80;;
19973;SDS011;10148;47.694;9.442;2022-10-30T08:58:29;14.43;;;8.60;;
19973;SDS011;10148;47.694;9.442;2022-10-30T09:00:55;10.32;;;8.05;;
19973;SDS011;10148;47.694;9.442;2022-10-30T09:03:21;12.05;;;7.88;;
19973;SDS011;10148;47.694;9.442;2022-10-30T09:05:47;12.75;;;7.43;;
19973;SDS011;10148;47.694;9.442;2022-10-30T09:08:12;11.52;;;7.40;;
19973;SDS011;10148;47.694;9.442;2022-10-30T09:10:38;10.60;;;7.22;;
19973;SDS011;10148;47.694;9.442;2022-10-30T09:13:03;17.33;;;7.15;;
19973;SDS011;10148;47.694;9.442;2022-10-30T09:15:29;12.73;;;7.47;;
19973;SDS011;10148;47.694;9.442;2022-10-30T09:17:58;10.90;;;8.52;;
19973;SDS011;10148;47.694;9.442;2022-10-30T09:20:25;13.40;;;8.20;;
19973;SDS011;10148;47.694;9.442;2022-10-30T09:22:51;10.90;;;7.90;;
19973;SDS011;10148;47.694;9.442;2022-10-30T09:25:17;9.80;;;8.15;;
19973;SDS011;10148;47.694;9.442;2022-10-30T09:27:43;11.02;;;7.85;;
19973;SDS011;10148;47.694;9.442;2022-10-30T09:30:09;11.07;;;8.85;;
19973;SDS011;10148;47.694;9.442;2022-10-30T09:32:34;13.73;;;9.50;;
19973;SDS011;10148;47.694;9.442;2022-10-30T09:35:00;12.27;;;9.13;;
19973;SDS011;10148;47.694;9.442;2022-10-30T09:37:26;11.75;;;9.25;;
19973;SDS011;10148;47.694;9.442;2022-10-30T09:39:52;12.07;;;8.95;;
19973;SDS011;10148;47.694;9.442;2022-10-30T09:44:47;11.18;;;8.48;;
19973;SDS011;10148;47.694;9.442;2022-10-30T09:50:19;9.63;;;7.85;;
19973;SDS011;10148;47.694;9.442;2022-10-30T09:53:05;11.13;;;7.60;;
19973;SDS011;10148;47.694;9.442;2022-10-30T09:58:14;10.40;;;8.20;;
19973;SDS011;10148;47.694;9.442;2022-10-30T10:03:35;11.75;;;8.25;;
19973;SDS011;10148;47.694;9.442;2022-10-30T10:06:16;9.23;;;8.05;;
19973;SDS011;10148;47.694;9.442;2022-10-30T10:08:47;13.88;;;8.45;;
19973;SDS011;10148;47.694;9.442;2022-10-30T10:11:20;10.90;;;8.80;;
19973;SDS011;10148;47.694;9.442;2022-10-30T10:14:02;10.63;;;8.48;;
19973;SDS011;10148;47.694;9.442;2022-10-30T10:16:32;10.82;;;9.15;;
19973;SDS011;10148;47.694;9.442;2022-10-30T10:21:43;16.50;;;8.73;;
19973;SDS011;10148;47.694;9.442;2022-10-30T10:24:20;15.07;;;8.13;;
19973;SDS011;10148;47.694;9.442;2022-10-30T10:26:51;11.00;;;9.48;;
19973;SDS011;10148;47.694;9.442;2022-10-30T10:29:46;15.63;;;10.45;;
19973;SDS011;10148;47.694;9.442;2022-10-30T10:45:53;13.45;;;10.60;;
19973;SDS011;10148;47.694;9.442;2022-10-30T10:48:46;12.95;;;9.82;;
19973;SDS011;10148;47.694;9.442;2022-10-30T10:51:21;13.18;;;11.05;;
19973;SDS011;10148;47.694;9.442;2022-10-30T10:53:57;16.27;;;11.35;;
19973;SDS011;10148;47.694;9.442;2022-10-30T10:56:30;16.23;;;10.82;;
19973;SDS011;10148;47.694;9.442;2022-10-30T10:59:04;16.20;;;11.25;;
19973;SDS011;10148;47.694;9.442;2022-10-30T11:01:38;13.13;;;10.77;;
19973;SDS011;10148;47.694;9.442;2022-10-30T11:04:23;15.52;;;11.80;;
19973;SDS011;10148;47.694;9.442;2022-10-30T11:06:56;14.35;;;11.50;;
19973;SDS011;10148;47.694;9.442;2022-10-30T11:09:23;17.02;;;12.25;;
19973;SDS011;10148;47.694;9.442;2022-10-30T11:11:51;17.42;;;12.07;;
19973;SDS011;10148;47.694;9.442;2022-10-30T11:14:23;15.50;;;12.25;;
19973;SDS011;10148;47.694;9.442;2022-10-30T11:17:10;17.77;;;12.85;;
19973;SDS011;10148;47.694;9.442;2022-10-30T11:19:44;13.25;;;10.75;;
19973;SDS011;10148;47.694;9.442;2022-10-30T11:22:20;15.00;;;11.90;;
19973;SDS011;10148;47.694;9.442;2022-10-30T11:24:53;16.25;;;12.38;;
19973;SDS011;10148;47.694;9.442;2022-10-30T11:29:48;15.18;;;12.57;;
19973;SDS011;10148;47.694;9.442;2022-10-30T11:32:39;15.40;;;11.20;;
19973;SDS011;10148;47.694;9.442;2022-10-30T11:37:37;15.45;;;12.82;;
19973;SDS011;10148;47.694;9.442;2022-10-30T11:40:14;15.32;;;12.25;;
19973;SDS011;10148;47.694;9.442;2022-10-30T11:43:00;16.10;;;12.48;;
19973;SDS011;10148;47.694;9.442;2022-10-30T11:45:29;20.30;;;13.35;;
19973;SDS011;10148;47.694;9.442;2022-10-30T11:47:58;18.23;;;14.23;;
19973;SDS011;10148;47.694;9.442;2022-10-30T11:50:25;15.60;;;12.57;;
19973;SDS011;10148;47.694;9.442;2022-10-30T11:53:09;17.20;;;12.80;;
19973;SDS011;10148;47.694;9.442;2022-10-30T11:55:40;14.38;;;10.52;;
19973;SDS011;10148;47.694;9.442;2022-10-30T11:58:19;11.65;;;9.45;;
19973;SDS011;10148;47.694;9.442;2022-10-30T12:00:58;11.13;;;9.65;;
19973;SDS011;10148;47.694;9.442;2022-10-30T12:03:43;12.35;;;9.88;;
19973;SDS011;10148;47.694;9.442;2022-10-30T12:09:08;13.73;;;10.45;;
19973;SDS011;10148;47.694;9.442;2022-10-30T12:11:39;12.55;;;8.80;;
19973;SDS011;10148;47.694;9.442;2022-10-30T12:14:15;11.43;;;8.48;;
19973;SDS011;10148;47.694;9.442;2022-10-30T12:16:49;10.75;;;9.35;;
19973;SDS011;10148;47.694;9.442;2022-10-30T12:19:16;11.05;;;9.25;;
19973;SDS011;10148;47.694;9.442;2022-10-30T12:21:46;12.30;;;8.65;;
19973;SDS011;10148;47.694;9.442;2022-10-30T12:24:20;11.25;;;8.88;;
19973;SDS011;10148;47.694;9.442;2022-10-30T12:26:57;14.95;;;8.77;;
19973;SDS011;10148;47.694;9.442;2022-10-30T12:29:33;12.65;;;8.07;;
19973;SDS011;10148;47.694;9.442;2022-10-30T12:32:13;9.25;;;7.82;;
19973;SDS011;10148;47.694;9.442;2022-10-30T12:34:49;10.20;;;7.95;;
19973;SDS011;10148;47.694;9.442;2022-10-30T12:37:23;13.20;;;7.85;;
19973;SDS011;10148;47.694;9.442;2022-10-30T12:43:04;11.13;;;8.38;;
19973;SDS011;10148;47.694;9.442;2022-10-30T12:45:35;12.55;;;8.57;;
19973;SDS011;10148;47.694;9.442;2022-10-30T12:50:46;17.65;;;12.23;;
19973;SDS011;10148;47.694;9.442;2022-10-30T12:53:47;13.05;;;10.05;;
19973;SDS011;10148;47.694;9.442;2022-10-30T12:56:23;15.40;;;11.80;;
19973;SDS011;10148;47.694;9.442;2022-10-30T12:59:02;21.13;;;14.35;;
19973;SDS011;10148;47.694;9.442;2022-10-30T13:01:49;15.63;;;10.25;;
19973;SDS011;10148;47.694;9.442;2022-10-30T13:04:26;14.05;;;10.77;;
19973;SDS011;10148;47.694;9.442;2022-10-30T13:06:58;13.00;;;9.50;;
19973;SDS011;10148;47.694;9.442;2022-10-30T13:09:42;13.43;;;9.57;;
19973;SDS011;10148;47.694;9.442;2022-10-30T13:12:17;14.88;;;10.70;;
19973;SDS011;10148;47.694;9.442;2022-10-30T13:17:34;14.27;;;10.55;;
19973;SDS011;10148;47.694;9.442;2022-10-30T13:20:00;11.52;;;9.30;;
19973;SDS011;10148;47.694;9.442;2022-10-30T13:22:37;12.68;;;9.95;;
19973;SDS011;10148;47.694;9.442;2022-10-30T13:27:54;11.13;;;9.90;;
19973;SDS011;10148;47.694;9.442;2022-10-30T13:30:38;10.10;;;7.97;;
19973;SDS011;10148;47.694;9.442;2022-10-30T13:33:17;10.20;;;8.63;;
19973;SDS011;10148;47.694;9.442;2022-10-30T13:35:58;12.13;;;10.00;;
19973;SDS011;10148;47.694;9.442;2022-10-30T13:41:23;13.15;;;9.98;;
19973;SDS011;10148;47.694;9.442;2022-10-30T13:43:57;11.75;;;9.82;;
19973;SDS011;10148;47.694;9.442;2022-10-30T13:49:33;11.75;;;8.23;;
19973;SDS011;10148;47.694;9.442;2022-10-30T13:55:00;12.85;;;10.63;;
19973;SDS011;10148;47.694;9.442;2022-10-30T13:57:43;11.55;;;8.70;;
19973;SDS011;10148;47.694;9.442;2022-10-30T14:00:14;14.55;;;9.88;;
19973;SDS011;10148;47.694;9.442;2022-10-30T14:05:52;10.73;;;8.57;;
19973;SDS011;10148;47.694;9.442;2022-10-30T14:11:04;13.30;;;8.85;;
19973;SDS011;10148;47.694;9.442;2022-10-30T14:18:30;9.85;;;8.05;;
19973;SDS011;10148;47.694;9.442;2022-10-30T14:22:18;8.60;;;7.00;;
19973;SDS011;10148;47.694;9.442;2022-10-30T14:32:03;7.50;;;6.57;;
19973;SDS011;10148;47.694;9.442;2022-10-30T14:37:16;9.25;;;6.70;;
19973;SDS011;10148;47.694;9.442;2022-10-30T14:43:07;10.60;;;7.88;;
19973;SDS011;10148;47.694;9.442;2022-10-30T14:46:02;10.77;;;8.93;;
19973;SDS011;10148;47.694;9.442;2022-10-30T14:48:44;14.73;;;10.75;;
19973;SDS011;10148;47.694;9.442;2022-10-30T14:51:28;17.05;;;12.57;;
19973;SDS011;10148;47.694;9.442;2022-10-30T14:54:18;16.80;;;12.45;;
19973;SDS011;10148;47.694;9.442;2022-10-30T14:56:46;17.17;;;12.32;;
19973;SDS011;10148;47.694;9.442;2022-10-30T15:04:11;16.30;;;10.88;;
19973;SDS011;10148;47.694;9.442;2022-10-30T15:12:21;16.40;;;10.68;;
19973;SDS011;10148;47.694;9.442;2022-10-30T15:14:55;20.05;;;14.40;;
19973;SDS011;10148;47.694;9.442;2022-10-30T15:17:29;15.38;;;11.15;;
19973;SDS011;10148;47.694;9.442;2022-10-30T15:20:06;14.88;;;10.70;;
19973;SDS011;10148;47.694;9.442;2022-10-30T15:22:39;14.35;;;11.30;;
19973;SDS011;10148;47.694;9.442;2022-10-30T15:25:12;12.57;;;10.57;;
19973;SDS011;10148;47.694;9.442;2022-10-30T15:27:46;16.05;;;11.27;;
19973;SDS011;10148;47.694;9.442;2022-10-30T15:30:16;12.98;;;9.57;;
19973;SDS011;10148;47.694;9.442;2022-10-30T15:32:43;13.00;;;9.93;;
19973;SDS011;10148;47.694;9.442;2022-10-30T15:35:13;11.13;;;9.32;;
19973;SDS011;10148;47.694;9.442;2022-10-30T15:37:59;11.45;;;9.10;;
19973;SDS011;10148;47.694;9.442;2022-10-30T15:40:25;14.88;;;9.90;;
19973;SDS011;10148;47.694;9.442;2022-10-30T15:42:52;11.35;;;9.35;;
19973;SDS011;10148;47.694;9.442;2022-10-30T15:45:20;16.90;;;10.52;;
19973;SDS011;10148;47.694;9.442;2022-10-30T15:47:57;11.68;;;9.85;;
19973;SDS011;10148;47.694;9.442;2022-10-30T15:50:44;16.13;;;11.25;;
19973;SDS011;10148;47.694;9.442;2022-10-30T15:53:23;15.45;;;11.60;;
19973;SDS011;10148;47.694;9.442;2022-10-30T15:55:52;15.05;;;11.45;;
19973;SDS011;10148;47.694;9.442;2022-10-30T15:58:22;59.72;;;39.40;;
19973;SDS011;10148;47.694;9.442;2022-10-30T16:00:58;51.15;;;35.92;;
19973;SDS011;10148;47.694;9.442;2022-10-30T16:03:25;24.48;;;19.42;;
19973;SDS011;10148;47.694;9.442;2022-10-30T16:06:05;17.33;;;13.23;;
19973;SDS011;10148;47.694;9.442;2022-10-30T16:08:44;16.40;;;13.82;;
19973;SDS011;10148;47.694;9.442;2022-10-30T16:11:11;15.77;;;12.25;;
19973;SDS011;10148;47.694;9.442;2022-10-30T16:13:38;17.08;;;13.82;;
19973;SDS011;10148;47.694;9.442;2022-10-30T16:16:05;19.92;;;13.98;;
19973;SDS011;10148;47.694;9.442;2022-10-30T16:18:35;18.98;;;13.93;;
19973;SDS011;10148;47.694;9.442;2022-10-30T16:21:02;17.35;;;13.25;;
19973;SDS011;10148;47.694;9.442;2022-10-30T16:23:36;19.05;;;13.70;;
19973;SDS011;10148;47.694;9.442;2022-10-30T16:26:03;17.58;;;13.80;;
19973;SDS011;10148;47.694;9.442;2022-10-30T16:28:29;16.73;;;13.70;;
19973;SDS011;10148;47.694;9.442;2022-10-30T16:31:01;17.13;;;13.45;;
19973;SDS011;10148;47.694;9.442;2022-10-30T16:33:29;18.92;;;13.48;;
19973;SDS011;10148;47.694;9.442;2022-10-30T16:35:57;17.45;;;13.25;;
19973;SDS011;10148;47.694;9.442;2022-10-30T16:38:25;16.83;;;12.93;;
19973;SDS011;10148;47.694;9.442;2022-10-30T16:40:55;17.17;;;12.80;;
19973;SDS011;10148;47.694;9.442;2022-10-30T16:43:28;17.25;;;12.82;;